createdAt,value
2019-01-27T00:02:30.696Z,94711.50
2019-01-27T00:17:33.265Z,94667.84
2019-01-27T00:23:22.354Z,94652.84
2019-01-27T00:29:40.835Z,94646.12
2019-01-27T00:41:41.798Z,94608.36
2019-01-27T00:50:28.689Z,94590.95
2019-01-27T00:53:16.914Z,94573.25
2019-01-27T00:56:07.449Z,94574.66
2019-01-27T01:10:44.873Z,94533.50
2019-01-27T01:19:31.591Z,94555.75
2019-01-27T01:28:03.589Z,94545.09
2019-01-27T01:33:45.452Z,94539.78
2019-01-27T01:36:28.638Z,94548.09
2019-01-27T01:39:54.319Z,94544.78
2019-01-27T01:42:44.429Z,94540.38
2019-01-27T01:45:34.810Z,94524.00
2019-01-27T01:48:24.846Z,94526.00
2019-01-27T01:51:51.039Z,94532.34
2019-01-27T01:54:40.755Z,94534.00
2019-01-27T01:57:30.576Z,94525.75
2019-01-27T02:03:56.239Z,94527.78
2019-01-27T02:06:45.916Z,94506.21
2019-01-27T02:09:35.507Z,94510.79
2019-01-27T02:12:25.089Z,94504.91
2019-01-27T02:15:53.235Z,94502.48
2019-01-27T02:18:42.827Z,94495.00
2019-01-27T02:21:32.476Z,94489.63
2019-01-27T02:24:22.073Z,94492.97
2019-01-27T02:27:11.709Z,94489.83
2019-01-27T02:30:01.346Z,94504.87
2019-01-27T02:32:50.947Z,94475.97
2019-01-27T02:35:40.573Z,94499.23
2019-01-27T02:38:30.269Z,94475.97
2019-01-27T02:41:19.889Z,94495.95
2019-01-27T02:44:09.619Z,94499.71
2019-01-27T02:46:59.293Z,94478.20
2019-01-27T02:49:48.853Z,94503.57
2019-01-27T02:52:38.416Z,94498.77
2019-01-27T02:55:28.010Z,94498.03
2019-01-27T02:58:17.996Z,94499.58
2019-01-27T03:01:07.575Z,94503.33
2019-01-27T03:03:57.444Z,94508.88
2019-01-27T03:10:37.119Z,94513.55
2019-01-27T03:13:26.700Z,94516.89
2019-01-27T03:16:16.321Z,94525.52
2019-01-27T03:19:05.909Z,94530.52
2019-01-27T03:21:55.498Z,94507.28
2019-01-27T03:24:45.081Z,94537.15
2019-01-27T03:28:28.982Z,94508.13
2019-01-27T03:31:11.522Z,94526.56
2019-01-27T03:34:01.117Z,94487.95
2019-01-27T03:36:50.985Z,94530.42
2019-01-27T03:39:41.256Z,94528.25
2019-01-27T03:45:44.216Z,94517.23
2019-01-27T03:48:34.626Z,94512.73
2019-01-27T03:51:24.216Z,94521.49
2019-01-27T03:54:13.824Z,94516.15
2019-01-27T03:57:03.408Z,94518.76
2019-01-27T03:59:52.993Z,94524.20
2019-01-27T04:02:42.683Z,94501.20
2019-01-27T04:05:32.355Z,94520.45
2019-01-27T04:08:21.959Z,94526.80
2019-01-27T04:11:11.546Z,94520.78
2019-01-27T04:14:01.140Z,94524.50
2019-01-27T04:16:50.734Z,94500.86
2019-01-27T04:19:40.424Z,94460.77
2019-01-27T04:22:30.005Z,94485.51
2019-01-27T04:25:56.181Z,94494.40
2019-01-27T04:28:45.750Z,94488.34
2019-01-27T04:31:26.422Z,94467.05
2019-01-27T04:34:16.011Z,94475.14
2019-01-27T04:37:05.577Z,94464.66
2019-01-27T04:42:47.586Z,94471.50
2019-01-27T04:48:48.209Z,94453.28
2019-01-27T04:51:37.786Z,94418.29
2019-01-27T04:54:27.358Z,94451.70
2019-01-27T04:57:17.004Z,94440.66
2019-01-27T05:00:47.487Z,94446.48
2019-01-27T05:03:55.898Z,94447.03
2019-01-27T05:06:45.473Z,94438.16
2019-01-27T05:09:35.074Z,94435.44
2019-01-27T05:12:24.924Z,94441.98
2019-01-27T05:15:14.955Z,94434.55
2019-01-27T05:21:19.541Z,94434.19
2019-01-27T05:24:09.110Z,94409.69
2019-01-27T05:26:58.676Z,94428.80
2019-01-27T05:30:07.246Z,94429.63
2019-01-27T05:32:56.823Z,94408.03
2019-01-27T05:35:46.500Z,94430.97
2019-01-27T05:38:36.075Z,94436.83
2019-01-27T05:41:25.656Z,94427.13
2019-01-27T05:44:15.642Z,94417.49
2019-01-27T05:47:05.197Z,94414.32
2019-01-27T05:49:53.515Z,94412.44
2019-01-27T05:52:43.074Z,94401.55
2019-01-27T05:55:32.983Z,94388.99
2019-01-27T05:58:22.550Z,94391.16
2019-01-27T06:01:12.130Z,94368.69
2019-01-27T06:04:01.719Z,94364.45
2019-01-27T06:06:51.314Z,94364.27
2019-01-27T06:09:40.904Z,94348.34
2019-01-27T06:12:30.485Z,94349.77
2019-01-27T06:15:40.422Z,94313.08
2019-01-27T06:18:29.995Z,94318.89
2019-01-27T06:21:19.580Z,94300.24
2019-01-27T06:24:09.152Z,94325.00
2019-01-27T06:26:58.737Z,94317.38
2019-01-27T06:29:48.363Z,94282.25
2019-01-27T06:38:43.141Z,94302.81
2019-01-27T06:41:32.769Z,94290.14
2019-01-27T06:44:22.362Z,94288.90
2019-01-27T06:47:11.949Z,94290.41
2019-01-27T06:50:01.523Z,94276.76
2019-01-27T06:52:51.096Z,94271.97
2019-01-27T06:55:41.306Z,94257.05
2019-01-27T06:58:49.779Z,94243.23
2019-01-27T07:01:44.278Z,94250.34
2019-01-27T07:04:53.041Z,94237.23
2019-01-27T07:08:01.786Z,94238.48
2019-01-27T07:11:10.263Z,94234.56
2019-01-27T07:14:18.804Z,94234.52
2019-01-27T07:17:27.268Z,94230.09
2019-01-27T07:20:35.683Z,94217.97
2019-01-27T07:23:44.097Z,94213.81
2019-01-27T07:26:53.080Z,94219.34
2019-01-27T07:29:55.789Z,94213.89
2019-01-27T07:32:57.230Z,94169.48
2019-01-27T07:36:05.763Z,94170.52
2019-01-27T07:39:14.349Z,94213.09
2019-01-27T07:42:23.522Z,94173.47
2019-01-27T07:45:53.267Z,94206.31
2019-01-27T07:48:52.154Z,94188.58
2019-01-27T07:52:00.633Z,94192.94
2019-01-27T07:54:57.308Z,94172.63
2019-01-27T07:58:06.021Z,94174.69
2019-01-27T08:04:31.046Z,94153.28
2019-01-27T08:10:33.269Z,94135.27
2019-01-27T08:13:41.747Z,94129.15
2019-01-27T08:16:50.193Z,94132.33
2019-01-27T08:19:58.708Z,94092.02
2019-01-27T08:23:07.142Z,94109.28
2019-01-27T08:26:15.586Z,94107.28
2019-01-27T08:29:24.140Z,94104.83
2019-01-27T08:32:25.567Z,94104.33
2019-01-27T08:35:34.312Z,94112.47
2019-01-27T08:42:12.344Z,94110.77
2019-01-27T08:45:20.794Z,94118.97
2019-01-27T08:48:10.376Z,94112.97
2019-01-27T08:51:00.012Z,94123.13
2019-01-27T08:53:50.144Z,94112.47
2019-01-27T08:56:39.814Z,94127.56
2019-01-27T09:02:38.393Z,94132.89
2019-01-27T09:05:46.857Z,94134.66
2019-01-27T09:08:55.303Z,94135.97
2019-01-27T09:12:03.754Z,94133.91
2019-01-27T09:15:00.896Z,94120.07
2019-01-27T09:18:09.354Z,94135.34
2019-01-27T09:21:17.819Z,94102.71
2019-01-27T09:27:39.130Z,94137.53
2019-01-27T09:33:48.207Z,94126.80
2019-01-27T09:36:56.641Z,94094.94
2019-01-27T09:40:05.107Z,94127.88
2019-01-27T09:43:03.972Z,94129.12
2019-01-27T09:46:05.540Z,94129.48
2019-01-27T09:49:13.269Z,94130.11
2019-01-27T09:52:17.051Z,94106.56
2019-01-27T09:55:28.717Z,94128.40
2019-01-27T09:58:37.165Z,94128.31
2019-01-27T10:07:48.894Z,94147.37
2019-01-27T10:10:57.364Z,94158.73
2019-01-27T10:14:05.786Z,94162.36
2019-01-27T10:17:14.379Z,94150.36
2019-01-27T10:20:23.654Z,94166.31
2019-01-27T10:23:32.122Z,94138.69
2019-01-27T10:26:40.950Z,94174.84
2019-01-27T10:29:49.379Z,94180.69
2019-01-27T10:32:50.306Z,94203.11
2019-01-27T10:35:59.620Z,94209.00
2019-01-27T10:38:56.856Z,94189.05
2019-01-27T10:42:07.816Z,94238.80
2019-01-27T10:45:35.600Z,94257.30
2019-01-27T10:48:44.221Z,94238.22
2019-01-27T10:51:52.890Z,94276.34
2019-01-27T10:55:04.392Z,94298.03
2019-01-27T10:58:16.115Z,94293.98
2019-01-27T11:01:26.421Z,94308.88
2019-01-27T11:04:35.511Z,94320.69
2019-01-27T11:07:44.725Z,94329.13
2019-01-27T11:17:09.937Z,94336.95
2019-01-27T11:20:12.066Z,94326.75
2019-01-27T11:26:19.077Z,94312.22
2019-01-27T11:29:27.680Z,94311.56
2019-01-27T11:32:28.653Z,94326.97
2019-01-27T11:35:25.292Z,94279.74
2019-01-27T11:38:33.878Z,94311.14
2019-01-27T11:41:42.411Z,94301.23
2019-01-27T11:44:50.845Z,94267.01
2019-01-27T11:48:36.077Z,94276.10
2019-01-27T11:51:44.643Z,94292.37
2019-01-27T11:54:34.357Z,94252.70
2019-01-27T11:58:19.620Z,94246.97
2019-01-27T12:02:04.936Z,94250.58
2019-01-27T12:04:54.792Z,94231.47
2019-01-27T12:07:44.511Z,94232.30
2019-01-27T12:10:52.924Z,94197.45
2019-01-27T12:13:42.724Z,94184.42
2019-01-27T12:16:32.476Z,94128.31
2019-01-27T12:23:21.070Z,94154.33
2019-01-27T12:26:10.651Z,94100.53
2019-01-27T12:29:00.232Z,94079.20
2019-01-27T12:31:43.953Z,93980.59
2019-01-27T12:34:33.541Z,94020.22
2019-01-27T12:37:23.558Z,93999.55
2019-01-27T12:43:43.724Z,94054.77
2019-01-27T13:01:15.788Z,93975.45
2019-01-27T13:04:05.696Z,93994.94
2019-01-27T13:07:30.507Z,93994.78
2019-01-27T13:17:57.902Z,94141.98
2019-01-27T13:21:42.369Z,94171.69
2019-01-27T13:25:27.366Z,94153.34
2019-01-27T13:28:17.165Z,94151.63
2019-01-27T13:31:01.411Z,94161.73
2019-01-27T13:33:51.299Z,94148.49
2019-01-27T13:36:58.575Z,94181.64
2019-01-27T13:40:25.077Z,94192.64
2019-01-27T13:43:14.834Z,94220.79
2019-01-27T13:46:04.778Z,94235.80
2019-01-27T13:48:54.542Z,94228.91
2019-01-27T13:51:44.309Z,94227.20
2019-01-27T13:58:22.662Z,94186.63
2019-01-27T14:01:12.351Z,94210.36
2019-01-27T14:04:38.715Z,94208.75
2019-01-27T14:07:45.314Z,94199.84
2019-01-27T14:10:51.754Z,94179.52
2019-01-27T14:13:41.495Z,94150.48
2019-01-27T14:16:29.640Z,94193.42
2019-01-27T14:19:17.677Z,94192.16
2019-01-27T14:22:07.357Z,94194.52
2019-01-27T14:25:15.367Z,94201.70
2019-01-27T14:31:11.792Z,94201.05
2019-01-27T14:33:53.750Z,94199.99
2019-01-27T14:40:34.984Z,94216.19
2019-01-27T14:43:24.805Z,94217.73
2019-01-27T14:49:59.213Z,94224.13
2019-01-27T14:53:44.390Z,94225.28
2019-01-27T15:00:46.990Z,94213.59
2019-01-27T15:03:36.807Z,94199.22
2019-01-27T15:09:22.476Z,94214.09
2019-01-27T15:24:26.233Z,94173.70
2019-01-27T15:39:08.653Z,94130.05
2019-01-27T16:03:16.914Z,94141.46
2019-01-27T16:09:09.283Z,94103.16
2019-01-27T16:11:59.051Z,94138.17
2019-01-27T17:00:37.188Z,93886.92
2019-01-27T17:06:14.051Z,93883.00
2019-01-27T17:15:01.100Z,93852.20
2019-01-27T17:17:51.640Z,93848.59
2019-01-27T17:23:41.681Z,93841.98
2019-01-27T17:26:31.927Z,93808.66
2019-01-27T17:35:21.928Z,93823.25
2019-01-27T17:41:14.882Z,93813.80
2019-01-27T18:10:58.933Z,93670.13
2019-01-27T18:13:54.568Z,93688.34
2019-01-27T18:16:44.559Z,93686.64
2019-01-27T18:22:30.956Z,93618.95
2019-01-27T18:28:13.070Z,93653.98
2019-01-27T18:30:55.652Z,93613.84
2019-01-27T18:33:45.925Z,93622.55
2019-01-27T18:48:20.360Z,93655.77
2019-01-27T18:54:11.317Z,93624.30
2019-01-27T18:57:05.907Z,93664.09
2019-01-27T19:00:00.627Z,93669.16
2019-01-27T19:02:59.271Z,93664.44
2019-01-27T19:09:00.481Z,93668.50
2019-01-27T19:14:58.897Z,93676.02
2019-01-27T19:20:37.349Z,93676.91
2019-01-27T19:23:45.923Z,93671.22
2019-01-27T19:26:54.752Z,93694.31
2019-01-27T19:33:15.995Z,93672.57
2019-01-27T19:39:38.004Z,93684.50
2019-01-27T19:42:48.875Z,93671.23
2019-01-27T19:45:57.591Z,93644.87
2019-01-27T19:51:49.692Z,93671.97
2019-01-27T19:54:58.421Z,93649.73
2019-01-27T19:58:07.148Z,93620.64
2019-01-27T20:01:15.856Z,93582.41
2019-01-27T20:04:23.499Z,93581.41
2019-01-27T20:07:32.120Z,93581.61
2019-01-27T20:11:14.588Z,93575.95
2019-01-27T20:14:59.918Z,93554.30
2019-01-27T20:39:27.020Z,93478.59
2019-01-27T20:53:56.258Z,93399.53
2019-01-27T20:57:40.093Z,93407.37
2019-01-27T21:20:05.834Z,93306.12
2019-01-27T21:26:41.400Z,93253.22
2019-01-27T21:30:06.715Z,93238.83
2019-01-27T21:32:49.347Z,93233.70
2019-01-27T21:35:56.596Z,93219.27
2019-01-27T21:42:32.941Z,93168.34
2019-01-27T21:45:21.851Z,93196.63
2019-01-27T21:55:44.546Z,93194.02
2019-01-27T22:09:20.310Z,93230.89
2019-01-27T22:16:08.741Z,93263.35
2019-01-27T22:22:45.151Z,93273.75
2019-01-27T22:25:34.784Z,93269.20
2019-01-27T22:29:00.634Z,93335.45
2019-01-27T22:32:19.175Z,93350.75
2019-01-27T22:35:02.277Z,93353.67
2019-01-27T22:42:35.815Z,93384.44
2019-01-27T22:45:24.857Z,93423.55
2019-01-27T22:49:10.858Z,93443.01
2019-01-27T22:52:37.192Z,93484.42
2019-01-27T22:59:24.818Z,93519.84
2019-01-27T23:02:51.147Z,93549.25
2019-01-27T23:05:40.928Z,93572.06
2019-01-27T23:08:30.648Z,93597.67
2019-01-27T23:11:20.667Z,93634.09
2019-01-27T23:14:29.251Z,93659.27
2019-01-27T23:17:19.508Z,93653.31
2019-01-27T23:20:09.287Z,93691.22
2019-01-27T23:22:59.490Z,93704.02
2019-01-27T23:26:06.728Z,93733.97
2019-01-27T23:29:50.361Z,93769.05
2019-01-27T23:39:03.473Z,93817.45
2019-01-27T23:42:09.760Z,93831.80
2019-01-27T23:44:59.503Z,93849.31
2019-01-27T23:47:49.292Z,93854.02
2019-01-27T23:50:39.001Z,93846.45
2019-01-27T23:53:28.635Z,93854.73
2019-01-27T23:56:18.271Z,93866.34
